Startpagina
METAR-TAF:

METAR-TAF

Vliegvelden :

Tabatinga, Amazonas, Brazilië

breedte: 03-40S, lengte: 069-40W, hoogte: 85 m

Actueel weer

Dit bericht is 13 uur en het 52 minuten geleden gemaakt, om 22:00 UTC
Weinig wind
Temperatuur 27°C
Vochtigheid 79%
Druk 1013 hPa
Zicht 10 km of meer
Weinig wolken op 2000 ft

METAR: SBTT 082200Z 00000KT 9999 FEW020 27/23 Q1013

Tijdstip: 07:52 (11:52 UTC)

Verwachting

Dit bericht is 2 uur en het 52 minuten geleden gemaakt, om 09:00 UTC
Verwachting geldig van 09 om 12 UTC tot 10 om 12 UTC
Wind 5 kt uit het zuiden
Zicht 10 km of meer
geen wolken onder 1500 m en geen cumulonimbus
Wijzigt naar
van 09 om 15 UTC tot 09 om 17 UTC
Wind 5 kt uit het oosten
Zicht 10 km of meer
Verspreide wolken op 2000 ft
Weinig wolken op 3000 ft, Stapelwolken.

TAF: SBTT 090900Z 0912/1012 18005KT CAVOK TX32/0918Z TN23/1007Z BECMG 0915/0917 09005KT 9999 SCT020 FEW030TCU RMK PCZ

Waarnemingen en weersverwachtingen van meer dan 4000 vliegvelden (METAR en TAF).

De beschikbare stations zijn de gele en rode punten op de kaart.

Ga met uw muis naar het station om de naam te zien.

Klik dan om waarnemingen en weersverwachtingen te zien.

kaart wijzigen: klik op de groene knoppen met een zwart kruis om in te zoomen, op de groene knop met een streepje om uit te zoomen of op de groene pijlen voor aangrenzende kaarten.


METAR-TAF: